sensor_id;sensor_type;location;lat;lon;timestamp;temperature;humidity
25918;DHT22;13899;51.174;4.456;2023-12-22T00:00:18;10.50;99.90
25918;DHT22;13899;51.174;4.456;2023-12-22T00:02:43;10.50;99.90
25918;DHT22;13899;51.174;4.456;2023-12-22T00:05:09;10.40;99.90
25918;DHT22;13899;51.174;4.456;2023-12-22T00:07:35;10.40;99.90
25918;DHT22;13899;51.174;4.456;2023-12-22T00:10:00;10.40;99.90
25918;DHT22;13899;51.174;4.456;2023-12-22T00:12:26;10.40;99.90
25918;DHT22;13899;51.174;4.456;2023-12-22T00:14:52;10.30;99.90
25918;DHT22;13899;51.174;4.456;2023-12-22T00:17:17;10.40;99.90
25918;DHT22;13899;51.174;4.456;2023-12-22T00:19:43;10.40;99.90
25918;DHT22;13899;51.174;4.456;2023-12-22T00:22:08;10.40;99.90
25918;DHT22;13899;51.174;4.456;2023-12-22T00:24:34;10.40;99.90
25918;DHT22;13899;51.174;4.456;2023-12-22T00:27:00;10.30;99.90
25918;DHT22;13899;51.174;4.456;2023-12-22T00:29:25;10.20;99.90
25918;DHT22;13899;51.174;4.456;2023-12-22T00:31:53;10.20;99.90
25918;DHT22;13899;51.174;4.456;2023-12-22T00:34:21;10.20;99.90
25918;DHT22;13899;51.174;4.456;2023-12-22T00:36:47;10.30;99.90
25918;DHT22;13899;51.174;4.456;2023-12-22T00:39:12;10.30;99.90
25918;DHT22;13899;51.174;4.456;2023-12-22T00:41:38;10.20;99.90
25918;DHT22;13899;51.174;4.456;2023-12-22T00:44:04;10.30;99.90
25918;DHT22;13899;51.174;4.456;2023-12-22T00:46:29;10.30;99.90
25918;DHT22;13899;51.174;4.456;2023-12-22T00:48:55;10.30;99.90
25918;DHT22;13899;51.174;4.456;2023-12-22T00:51:21;10.20;99.90
25918;DHT22;13899;51.174;4.456;2023-12-22T00:53:46;10.20;99.90
25918;DHT22;13899;51.174;4.456;2023-12-22T00:56:12;10.20;99.90
25918;DHT22;13899;51.174;4.456;2023-12-22T00:58:39;10.20;99.90
25918;DHT22;13899;51.174;4.456;2023-12-22T01:01:05;10.20;99.90
25918;DHT22;13899;51.174;4.456;2023-12-22T01:03:31;10.20;99.90
25918;DHT22;13899;51.174;4.456;2023-12-22T01:05:56;10.20;99.90
25918;DHT22;13899;51.174;4.456;2023-12-22T01:08:22;10.30;99.90
25918;DHT22;13899;51.174;4.456;2023-12-22T01:10:48;10.20;99.90
25918;DHT22;13899;51.174;4.456;2023-12-22T01:13:14;10.20;99.90
25918;DHT22;13899;51.174;4.456;2023-12-22T01:15:40;10.20;99.90
25918;DHT22;13899;51.174;4.456;2023-12-22T01:18:05;10.30;99.90
25918;DHT22;13899;51.174;4.456;2023-12-22T01:20:31;10.10;99.90
25918;DHT22;13899;51.174;4.456;2023-12-22T01:22:57;10.00;99.90
25918;DHT22;13899;51.174;4.456;2023-12-22T01:25:22;9.90;99.90
25918;DHT22;13899;51.174;4.456;2023-12-22T01:27:49;9.80;99.90
25918;DHT22;13899;51.174;4.456;2023-12-22T01:30:17;9.90;99.90
25918;DHT22;13899;51.174;4.456;2023-12-22T01:32:43;9.90;99.90
25918;DHT22;13899;51.174;4.456;2023-12-22T01:35:09;10.00;99.90
25918;DHT22;13899;51.174;4.456;2023-12-22T01:37:38;10.00;99.90
25918;DHT22;13899;51.174;4.456;2023-12-22T01:40:05;10.00;99.90
25918;DHT22;13899;51.174;4.456;2023-12-22T01:42:31;10.10;99.90
25918;DHT22;13899;51.174;4.456;2023-12-22T01:44:56;10.00;99.90
25918;DHT22;13899;51.174;4.456;2023-12-22T01:47:22;10.00;99.90
25918;DHT22;13899;51.174;4.456;2023-12-22T01:49:48;9.90;99.90
25918;DHT22;13899;51.174;4.456;2023-12-22T01:52:15;9.90;99.90
25918;DHT22;13899;51.174;4.456;2023-12-22T01:54:40;10.00;99.90
25918;DHT22;13899;51.174;4.456;2023-12-22T01:57:06;10.00;99.90
25918;DHT22;13899;51.174;4.456;2023-12-22T01:59:33;10.10;99.90
25918;DHT22;13899;51.174;4.456;2023-12-22T02:02:00;10.10;99.90
25918;DHT22;13899;51.174;4.456;2023-12-22T02:04:26;10.10;99.90
25918;DHT22;13899;51.174;4.456;2023-12-22T02:06:53;10.10;99.90
25918;DHT22;13899;51.174;4.456;2023-12-22T02:09:19;10.10;99.90
25918;DHT22;13899;51.174;4.456;2023-12-22T02:11:44;10.10;99.90
25918;DHT22;13899;51.174;4.456;2023-12-22T02:14:10;10.10;99.90
25918;DHT22;13899;51.174;4.456;2023-12-22T02:16:45;10.10;99.90
25918;DHT22;13899;51.174;4.456;2023-12-22T02:22:03;10.00;99.90
25918;DHT22;13899;51.174;4.456;2023-12-22T02:24:29;10.00;99.90
25918;DHT22;13899;51.174;4.456;2023-12-22T02:27:05;10.00;99.90
25918;DHT22;13899;51.174;4.456;2023-12-22T02:29:42;10.00;99.90
25918;DHT22;13899;51.174;4.456;2023-12-22T02:32:14;10.10;99.90
25918;DHT22;13899;51.174;4.456;2023-12-22T02:34:43;10.00;99.90
25918;DHT22;13899;51.174;4.456;2023-12-22T02:37:12;10.00;99.90
25918;DHT22;13899;51.174;4.456;2023-12-22T02:39:39;9.90;99.90
25918;DHT22;13899;51.174;4.456;2023-12-22T02:42:08;10.00;99.90
25918;DHT22;13899;51.174;4.456;2023-12-22T02:44:33;10.00;99.90
25918;DHT22;13899;51.174;4.456;2023-12-22T02:46:59;10.10;99.90
25918;DHT22;13899;51.174;4.456;2023-12-22T02:49:25;10.10;99.90
25918;DHT22;13899;51.174;4.456;2023-12-22T02:51:50;10.10;99.90
25918;DHT22;13899;51.174;4.456;2023-12-22T02:54:16;10.10;99.90
25918;DHT22;13899;51.174;4.456;2023-12-22T02:56:41;10.10;99.90
25918;DHT22;13899;51.174;4.456;2023-12-22T02:59:09;10.10;99.90
25918;DHT22;13899;51.174;4.456;2023-12-22T03:01:35;10.00;99.90
25918;DHT22;13899;51.174;4.456;2023-12-22T03:04:00;10.00;99.90
25918;DHT22;13899;51.174;4.456;2023-12-22T03:06:26;10.00;99.90
25918;DHT22;13899;51.174;4.456;2023-12-22T03:08:52;9.90;99.90
25918;DHT22;13899;51.174;4.456;2023-12-22T03:11:17;9.90;99.90
25918;DHT22;13899;51.174;4.456;2023-12-22T03:13:43;9.90;99.90
25918;DHT22;13899;51.174;4.456;2023-12-22T03:16:09;10.00;99.90
25918;DHT22;13899;51.174;4.456;2023-12-22T03:18:34;10.00;99.90
25918;DHT22;13899;51.174;4.456;2023-12-22T03:21:00;10.00;99.90
25918;DHT22;13899;51.174;4.456;2023-12-22T03:23:26;10.10;99.90
25918;DHT22;13899;51.174;4.456;2023-12-22T03:25:51;10.10;99.90
25918;DHT22;13899;51.174;4.456;2023-12-22T03:28:17;10.00;99.90
25918;DHT22;13899;51.174;4.456;2023-12-22T03:30:42;10.00;99.90
25918;DHT22;13899;51.174;4.456;2023-12-22T03:33:08;10.00;99.90
25918;DHT22;13899;51.174;4.456;2023-12-22T03:35:34;10.00;99.90
25918;DHT22;13899;51.174;4.456;2023-12-22T03:37:59;10.00;99.90
25918;DHT22;13899;51.174;4.456;2023-12-22T03:40:26;10.10;99.90
25918;DHT22;13899;51.174;4.456;2023-12-22T03:42:51;10.10;99.90
25918;DHT22;13899;51.174;4.456;2023-12-22T03:45:17;10.10;99.90
25918;DHT22;13899;51.174;4.456;2023-12-22T03:47:42;10.10;99.90
25918;DHT22;13899;51.174;4.456;2023-12-22T03:50:08;10.00;99.90
25918;DHT22;13899;51.174;4.456;2023-12-22T03:52:34;10.00;99.90
25918;DHT22;13899;51.174;4.456;2023-12-22T03:54:59;10.00;99.90
25918;DHT22;13899;51.174;4.456;2023-12-22T03:57:25;9.90;99.90
25918;DHT22;13899;51.174;4.456;2023-12-22T03:59:50;9.90;99.90
25918;DHT22;13899;51.174;4.456;2023-12-22T04:02:16;9.80;99.90
25918;DHT22;13899;51.174;4.456;2023-12-22T04:04:42;9.80;99.90
25918;DHT22;13899;51.174;4.456;2023-12-22T04:07:08;9.90;99.90
25918;DHT22;13899;51.174;4.456;2023-12-22T04:09:33;9.90;99.90
25918;DHT22;13899;51.174;4.456;2023-12-22T04:11:59;9.90;99.90
25918;DHT22;13899;51.174;4.456;2023-12-22T04:14:25;9.80;99.90
25918;DHT22;13899;51.174;4.456;2023-12-22T04:16:50;9.90;99.90
25918;DHT22;13899;51.174;4.456;2023-12-22T04:19:18;9.90;99.90
25918;DHT22;13899;51.174;4.456;2023-12-22T04:21:43;9.80;99.90
25918;DHT22;13899;51.174;4.456;2023-12-22T04:24:09;9.80;99.90
25918;DHT22;13899;51.174;4.456;2023-12-22T04:26:35;9.80;99.90
25918;DHT22;13899;51.174;4.456;2023-12-22T04:29:01;10.00;99.90
25918;DHT22;13899;51.174;4.456;2023-12-22T04:31:27;10.00;99.90
25918;DHT22;13899;51.174;4.456;2023-12-22T04:33:52;10.00;99.90
25918;DHT22;13899;51.174;4.456;2023-12-22T04:36:18;9.90;99.90
25918;DHT22;13899;51.174;4.456;2023-12-22T04:38:44;9.90;99.90
25918;DHT22;13899;51.174;4.456;2023-12-22T04:41:09;9.90;99.90
25918;DHT22;13899;51.174;4.456;2023-12-22T04:43:35;9.90;99.90
25918;DHT22;13899;51.174;4.456;2023-12-22T04:46:00;9.90;99.90
25918;DHT22;13899;51.174;4.456;2023-12-22T04:48:26;9.90;99.90
25918;DHT22;13899;51.174;4.456;2023-12-22T04:50:52;10.00;99.90
25918;DHT22;13899;51.174;4.456;2023-12-22T04:53:17;9.90;99.90
25918;DHT22;13899;51.174;4.456;2023-12-22T04:55:43;9.80;99.90
25918;DHT22;13899;51.174;4.456;2023-12-22T04:58:09;9.80;99.90
25918;DHT22;13899;51.174;4.456;2023-12-22T05:00:34;9.80;99.90
25918;DHT22;13899;51.174;4.456;2023-12-22T05:03:00;9.80;99.90
25918;DHT22;13899;51.174;4.456;2023-12-22T05:05:26;9.80;99.90
25918;DHT22;13899;51.174;4.456;2023-12-22T05:07:51;9.90;99.90
25918;DHT22;13899;51.174;4.456;2023-12-22T05:10:17;10.00;99.90
25918;DHT22;13899;51.174;4.456;2023-12-22T05:12:42;10.00;99.90
25918;DHT22;13899;51.174;4.456;2023-12-22T05:15:08;10.00;99.90
25918;DHT22;13899;51.174;4.456;2023-12-22T05:17:34;9.90;99.90
25918;DHT22;13899;51.174;4.456;2023-12-22T05:20:00;9.90;99.90
25918;DHT22;13899;51.174;4.456;2023-12-22T05:22:25;10.00;99.90
25918;DHT22;13899;51.174;4.456;2023-12-22T05:24:51;10.10;99.90
25918;DHT22;13899;51.174;4.456;2023-12-22T05:27:18;10.10;99.90
25918;DHT22;13899;51.174;4.456;2023-12-22T05:29:43;10.10;99.90
25918;DHT22;13899;51.174;4.456;2023-12-22T05:32:09;10.10;99.90
25918;DHT22;13899;51.174;4.456;2023-12-22T05:34:34;10.10;99.90
25918;DHT22;13899;51.174;4.456;2023-12-22T05:37:00;10.30;99.90
25918;DHT22;13899;51.174;4.456;2023-12-22T05:39:25;10.20;99.90
25918;DHT22;13899;51.174;4.456;2023-12-22T05:41:51;10.20;99.90
25918;DHT22;13899;51.174;4.456;2023-12-22T05:44:17;10.30;99.90
25918;DHT22;13899;51.174;4.456;2023-12-22T05:46:42;10.20;99.90
25918;DHT22;13899;51.174;4.456;2023-12-22T05:49:08;10.20;99.90
25918;DHT22;13899;51.174;4.456;2023-12-22T05:51:40;10.40;99.90
25918;DHT22;13899;51.174;4.456;2023-12-22T05:54:08;10.30;99.90
25918;DHT22;13899;51.174;4.456;2023-12-22T05:56:33;10.40;99.90
25918;DHT22;13899;51.174;4.456;2023-12-22T05:58:59;10.30;99.90
25918;DHT22;13899;51.174;4.456;2023-12-22T06:01:25;10.30;99.90
25918;DHT22;13899;51.174;4.456;2023-12-22T06:03:51;10.30;99.90
25918;DHT22;13899;51.174;4.456;2023-12-22T06:06:17;10.40;99.90
25918;DHT22;13899;51.174;4.456;2023-12-22T06:08:44;10.50;99.90
25918;DHT22;13899;51.174;4.456;2023-12-22T06:11:09;10.50;99.90
25918;DHT22;13899;51.174;4.456;2023-12-22T06:13:35;10.40;99.90
25918;DHT22;13899;51.174;4.456;2023-12-22T06:16:01;10.30;99.90
25918;DHT22;13899;51.174;4.456;2023-12-22T06:18:26;10.30;99.90
25918;DHT22;13899;51.174;4.456;2023-12-22T06:20:52;10.20;99.90
25918;DHT22;13899;51.174;4.456;2023-12-22T06:23:18;10.40;99.90
25918;DHT22;13899;51.174;4.456;2023-12-22T06:25:44;10.50;99.90
25918;DHT22;13899;51.174;4.456;2023-12-22T06:28:12;10.60;99.90
25918;DHT22;13899;51.174;4.456;2023-12-22T06:30:37;10.50;99.90
25918;DHT22;13899;51.174;4.456;2023-12-22T06:33:03;10.50;99.90
25918;DHT22;13899;51.174;4.456;2023-12-22T06:35:29;10.50;99.90
25918;DHT22;13899;51.174;4.456;2023-12-22T06:37:57;10.50;99.90
25918;DHT22;13899;51.174;4.456;2023-12-22T06:40:26;10.50;99.90
25918;DHT22;13899;51.174;4.456;2023-12-22T06:42:52;10.50;99.90
25918;DHT22;13899;51.174;4.456;2023-12-22T06:45:17;10.50;99.90
25918;DHT22;13899;51.174;4.456;2023-12-22T06:47:43;10.50;99.90
25918;DHT22;13899;51.174;4.456;2023-12-22T06:50:09;10.60;99.90
25918;DHT22;13899;51.174;4.456;2023-12-22T06:52:34;10.50;99.90
25918;DHT22;13899;51.174;4.456;2023-12-22T06:55:00;10.50;99.90
25918;DHT22;13899;51.174;4.456;2023-12-22T06:57:26;10.50;99.90
25918;DHT22;13899;51.174;4.456;2023-12-22T06:59:51;10.50;99.90
25918;DHT22;13899;51.174;4.456;2023-12-22T07:02:17;10.50;99.90
25918;DHT22;13899;51.174;4.456;2023-12-22T07:07:49;10.40;99.90
25918;DHT22;13899;51.174;4.456;2023-12-22T07:10:16;10.40;99.90
25918;DHT22;13899;51.174;4.456;2023-12-22T07:12:41;10.40;99.90
25918;DHT22;13899;51.174;4.456;2023-12-22T07:15:07;10.40;99.90
25918;DHT22;13899;51.174;4.456;2023-12-22T07:17:33;10.30;99.90
25918;DHT22;13899;51.174;4.456;2023-12-22T07:19:59;10.20;99.90
25918;DHT22;13899;51.174;4.456;2023-12-22T07:22:25;10.20;99.90
25918;DHT22;13899;51.174;4.456;2023-12-22T07:24:50;10.10;99.90
25918;DHT22;13899;51.174;4.456;2023-12-22T07:27:18;10.10;99.90
25918;DHT22;13899;51.174;4.456;2023-12-22T07:29:43;10.10;99.90
25918;DHT22;13899;51.174;4.456;2023-12-22T07:32:09;10.10;99.90
25918;DHT22;13899;51.174;4.456;2023-12-22T07:34:35;10.10;99.90
25918;DHT22;13899;51.174;4.456;2023-12-22T07:37:01;9.80;99.90
25918;DHT22;13899;51.174;4.456;2023-12-22T07:39:26;9.80;99.90
25918;DHT22;13899;51.174;4.456;2023-12-22T07:41:52;9.60;99.90
25918;DHT22;13899;51.174;4.456;2023-12-22T07:44:17;9.60;99.90
25918;DHT22;13899;51.174;4.456;2023-12-22T07:46:43;9.70;99.90
25918;DHT22;13899;51.174;4.456;2023-12-22T07:49:09;9.80;99.90
25918;DHT22;13899;51.174;4.456;2023-12-22T07:51:34;9.70;99.90
25918;DHT22;13899;51.174;4.456;2023-12-22T07:54:00;9.60;99.90
25918;DHT22;13899;51.174;4.456;2023-12-22T07:56:25;9.60;99.90
25918;DHT22;13899;51.174;4.456;2023-12-22T07:58:51;9.50;99.90
25918;DHT22;13899;51.174;4.456;2023-12-22T08:01:16;9.40;99.90
25918;DHT22;13899;51.174;4.456;2023-12-22T08:03:42;9.50;99.90
25918;DHT22;13899;51.174;4.456;2023-12-22T08:06:08;9.60;99.90
25918;DHT22;13899;51.174;4.456;2023-12-22T08:08:33;9.70;99.90
25918;DHT22;13899;51.174;4.456;2023-12-22T08:11:00;9.70;99.90
25918;DHT22;13899;51.174;4.456;2023-12-22T08:13:25;9.60;99.90
25918;DHT22;13899;51.174;4.456;2023-12-22T08:15:51;9.50;99.90
25918;DHT22;13899;51.174;4.456;2023-12-22T08:18:16;9.40;99.90
25918;DHT22;13899;51.174;4.456;2023-12-22T08:20:42;9.40;99.90
25918;DHT22;13899;51.174;4.456;2023-12-22T08:23:08;9.50;99.90
25918;DHT22;13899;51.174;4.456;2023-12-22T08:25:34;9.40;99.90
25918;DHT22;13899;51.174;4.456;2023-12-22T08:27:59;9.40;99.90
25918;DHT22;13899;51.174;4.456;2023-12-22T08:30:26;9.50;99.90
25918;DHT22;13899;51.174;4.456;2023-12-22T08:32:52;9.40;99.90
25918;DHT22;13899;51.174;4.456;2023-12-22T08:35:19;9.50;99.90
25918;DHT22;13899;51.174;4.456;2023-12-22T08:37:44;9.40;99.90
25918;DHT22;13899;51.174;4.456;2023-12-22T08:40:10;9.50;99.90
25918;DHT22;13899;51.174;4.456;2023-12-22T08:42:36;9.60;99.90
25918;DHT22;13899;51.174;4.456;2023-12-22T08:45:01;9.60;99.90
25918;DHT22;13899;51.174;4.456;2023-12-22T08:47:28;9.60;99.90
25918;DHT22;13899;51.174;4.456;2023-12-22T08:49:53;9.70;99.90
25918;DHT22;13899;51.174;4.456;2023-12-22T08:52:19;9.70;99.90
25918;DHT22;13899;51.174;4.456;2023-12-22T08:54:44;9.80;99.90
25918;DHT22;13899;51.174;4.456;2023-12-22T08:57:10;9.80;99.90
25918;DHT22;13899;51.174;4.456;2023-12-22T08:59:36;9.80;99.90
25918;DHT22;13899;51.174;4.456;2023-12-22T09:02:02;9.90;99.90
25918;DHT22;13899;51.174;4.456;2023-12-22T09:04:27;9.90;99.90
25918;DHT22;13899;51.174;4.456;2023-12-22T09:06:53;9.90;99.90
25918;DHT22;13899;51.174;4.456;2023-12-22T09:09:19;9.90;99.90
25918;DHT22;13899;51.174;4.456;2023-12-22T09:11:44;10.00;99.90
25918;DHT22;13899;51.174;4.456;2023-12-22T09:14:10;10.10;99.90
25918;DHT22;13899;51.174;4.456;2023-12-22T09:16:36;10.00;99.90
25918;DHT22;13899;51.174;4.456;2023-12-22T09:19:02;10.00;99.90
25918;DHT22;13899;51.174;4.456;2023-12-22T09:21:28;10.00;99.90
25918;DHT22;13899;51.174;4.456;2023-12-22T09:23:53;10.00;99.90
25918;DHT22;13899;51.174;4.456;2023-12-22T09:26:21;10.00;99.90
25918;DHT22;13899;51.174;4.456;2023-12-22T09:28:46;10.00;99.90
25918;DHT22;13899;51.174;4.456;2023-12-22T09:31:12;10.00;99.90
25918;DHT22;13899;51.174;4.456;2023-12-22T09:33:39;10.00;99.90
25918;DHT22;13899;51.174;4.456;2023-12-22T09:36:05;9.90;99.90
25918;DHT22;13899;51.174;4.456;2023-12-22T09:38:31;10.00;99.90
25918;DHT22;13899;51.174;4.456;2023-12-22T09:40:57;10.00;99.90
25918;DHT22;13899;51.174;4.456;2023-12-22T09:43:23;10.10;99.90
25918;DHT22;13899;51.174;4.456;2023-12-22T09:45:50;10.10;99.90
25918;DHT22;13899;51.174;4.456;2023-12-22T09:48:20;10.30;99.90
25918;DHT22;13899;51.174;4.456;2023-12-22T09:50:52;10.30;99.90
25918;DHT22;13899;51.174;4.456;2023-12-22T09:53:20;10.20;99.90
25918;DHT22;13899;51.174;4.456;2023-12-22T09:55:46;10.30;99.90
25918;DHT22;13899;51.174;4.456;2023-12-22T09:58:14;10.40;99.90
25918;DHT22;13899;51.174;4.456;2023-12-22T10:00:40;10.40;99.90
25918;DHT22;13899;51.174;4.456;2023-12-22T10:03:07;10.50;99.90
25918;DHT22;13899;51.174;4.456;2023-12-22T10:05:33;10.40;99.90
25918;DHT22;13899;51.174;4.456;2023-12-22T10:08:00;10.40;99.90
25918;DHT22;13899;51.174;4.456;2023-12-22T10:10:28;10.60;99.90
25918;DHT22;13899;51.174;4.456;2023-12-22T10:12:54;10.60;99.90
25918;DHT22;13899;51.174;4.456;2023-12-22T10:15:21;10.60;99.90
25918;DHT22;13899;51.174;4.456;2023-12-22T10:17:50;10.70;99.90
25918;DHT22;13899;51.174;4.456;2023-12-22T10:20:16;10.70;99.90
25918;DHT22;13899;51.174;4.456;2023-12-22T10:22:42;10.70;99.90
25918;DHT22;13899;51.174;4.456;2023-12-22T10:25:08;10.80;99.90
25918;DHT22;13899;51.174;4.456;2023-12-22T10:27:36;10.80;99.90
25918;DHT22;13899;51.174;4.456;2023-12-22T10:30:03;10.80;99.90
25918;DHT22;13899;51.174;4.456;2023-12-22T10:32:29;10.90;99.90
25918;DHT22;13899;51.174;4.456;2023-12-22T10:34:56;11.00;99.90
25918;DHT22;13899;51.174;4.456;2023-12-22T10:37:23;11.00;99.90
25918;DHT22;13899;51.174;4.456;2023-12-22T10:39:52;11.00;99.90
25918;DHT22;13899;51.174;4.456;2023-12-22T10:42:18;11.00;99.90
25918;DHT22;13899;51.174;4.456;2023-12-22T10:44:43;11.00;99.90
25918;DHT22;13899;51.174;4.456;2023-12-22T10:47:10;11.10;99.90
25918;DHT22;13899;51.174;4.456;2023-12-22T10:49:36;11.10;99.90
25918;DHT22;13899;51.174;4.456;2023-12-22T10:52:02;11.10;99.90
25918;DHT22;13899;51.174;4.456;2023-12-22T10:54:29;11.20;99.90
25918;DHT22;13899;51.174;4.456;2023-12-22T10:56:59;11.40;99.90
25918;DHT22;13899;51.174;4.456;2023-12-22T10:59:28;11.20;99.90
25918;DHT22;13899;51.174;4.456;2023-12-22T11:01:57;11.10;99.90
25918;DHT22;13899;51.174;4.456;2023-12-22T11:04:29;11.10;99.90
25918;DHT22;13899;51.174;4.456;2023-12-22T11:06:57;11.00;99.90
25918;DHT22;13899;51.174;4.456;2023-12-22T11:09:26;11.10;99.90
25918;DHT22;13899;51.174;4.456;2023-12-22T11:11:56;11.10;99.90
25918;DHT22;13899;51.174;4.456;2023-12-22T11:14:24;11.10;99.90
25918;DHT22;13899;51.174;4.456;2023-12-22T11:16:51;11.10;99.90
25918;DHT22;13899;51.174;4.456;2023-12-22T11:19:19;11.00;99.90
25918;DHT22;13899;51.174;4.456;2023-12-22T11:21:47;10.90;99.90
25918;DHT22;13899;51.174;4.456;2023-12-22T11:24:15;10.80;99.90
25918;DHT22;13899;51.174;4.456;2023-12-22T11:26:41;10.80;99.90
25918;DHT22;13899;51.174;4.456;2023-12-22T11:29:09;10.80;99.90
25918;DHT22;13899;51.174;4.456;2023-12-22T11:31:36;10.80;99.90
25918;DHT22;13899;51.174;4.456;2023-12-22T11:34:05;10.80;99.90
25918;DHT22;13899;51.174;4.456;2023-12-22T11:36:31;10.90;99.90
25918;DHT22;13899;51.174;4.456;2023-12-22T11:38:57;10.90;99.90
25918;DHT22;13899;51.174;4.456;2023-12-22T11:41:27;10.80;99.90
25918;DHT22;13899;51.174;4.456;2023-12-22T11:43:54;11.00;99.90
25918;DHT22;13899;51.174;4.456;2023-12-22T11:46:21;11.00;99.90
25918;DHT22;13899;51.174;4.456;2023-12-22T11:48:50;11.20;99.90
25918;DHT22;13899;51.174;4.456;2023-12-22T11:51:17;11.20;99.90
25918;DHT22;13899;51.174;4.456;2023-12-22T11:53:43;11.30;99.90
25918;DHT22;13899;51.174;4.456;2023-12-22T11:56:09;11.40;99.90
25918;DHT22;13899;51.174;4.456;2023-12-22T12:01:13;11.70;99.90
25918;DHT22;13899;51.174;4.456;2023-12-22T12:03:47;11.70;99.90
25918;DHT22;13899;51.174;4.456;2023-12-22T12:06:14;11.70;99.90
25918;DHT22;13899;51.174;4.456;2023-12-22T12:08:40;11.70;99.90
25918;DHT22;13899;51.174;4.456;2023-12-22T12:11:07;11.70;99.90
25918;DHT22;13899;51.174;4.456;2023-12-22T12:13:33;11.80;99.90
25918;DHT22;13899;51.174;4.456;2023-12-22T12:16:00;11.70;99.90
25918;DHT22;13899;51.174;4.456;2023-12-22T12:18:30;11.70;99.90
25918;DHT22;13899;51.174;4.456;2023-12-22T12:20:57;11.60;99.90
25918;DHT22;13899;51.174;4.456;2023-12-22T12:23:27;11.70;99.90
25918;DHT22;13899;51.174;4.456;2023-12-22T12:25:53;11.80;99.90
25918;DHT22;13899;51.174;4.456;2023-12-22T12:28:29;11.90;99.90
25918;DHT22;13899;51.174;4.456;2023-12-22T12:31:03;11.80;99.90
25918;DHT22;13899;51.174;4.456;2023-12-22T12:33:30;11.70;99.90
25918;DHT22;13899;51.174;4.456;2023-12-22T12:35:58;11.70;99.90
25918;DHT22;13899;51.174;4.456;2023-12-22T12:38:54;11.70;99.90
25918;DHT22;13899;51.174;4.456;2023-12-22T12:41:31;11.70;99.90
25918;DHT22;13899;51.174;4.456;2023-12-22T12:43:58;11.80;99.90
25918;DHT22;13899;51.174;4.456;2023-12-22T12:46:37;11.70;99.90
25918;DHT22;13899;51.174;4.456;2023-12-22T12:51:29;11.70;99.90
25918;DHT22;13899;51.174;4.456;2023-12-22T12:53:56;11.70;99.90
25918;DHT22;13899;51.174;4.456;2023-12-22T12:56:21;11.70;99.90
25918;DHT22;13899;51.174;4.456;2023-12-22T12:58:47;11.80;99.90
25918;DHT22;13899;51.174;4.456;2023-12-22T13:01:13;11.80;99.90
25918;DHT22;13899;51.174;4.456;2023-12-22T13:03:54;11.80;99.90
25918;DHT22;13899;51.174;4.456;2023-12-22T13:06:20;11.70;99.90
25918;DHT22;13899;51.174;4.456;2023-12-22T13:08:49;11.60;99.90
25918;DHT22;13899;51.174;4.456;2023-12-22T13:11:20;11.70;99.90
25918;DHT22;13899;51.174;4.456;2023-12-22T13:13:45;11.80;99.90
25918;DHT22;13899;51.174;4.456;2023-12-22T13:16:11;11.80;99.90
25918;DHT22;13899;51.174;4.456;2023-12-22T13:18:37;11.70;99.90
25918;DHT22;13899;51.174;4.456;2023-12-22T13:21:04;11.60;99.90
25918;DHT22;13899;51.174;4.456;2023-12-22T13:23:29;11.50;99.90
25918;DHT22;13899;51.174;4.456;2023-12-22T13:25:55;11.70;99.90
25918;DHT22;13899;51.174;4.456;2023-12-22T13:28:28;11.60;99.90
25918;DHT22;13899;51.174;4.456;2023-12-22T13:30:54;11.70;99.90
25918;DHT22;13899;51.174;4.456;2023-12-22T13:33:20;11.60;99.90
25918;DHT22;13899;51.174;4.456;2023-12-22T13:35:46;11.60;99.90
25918;DHT22;13899;51.174;4.456;2023-12-22T13:38:12;11.60;99.90
25918;DHT22;13899;51.174;4.456;2023-12-22T13:40:44;11.50;99.90
25918;DHT22;13899;51.174;4.456;2023-12-22T13:43:09;11.50;99.90
25918;DHT22;13899;51.174;4.456;2023-12-22T13:45:35;11.40;99.90
25918;DHT22;13899;51.174;4.456;2023-12-22T13:48:01;11.40;99.90
25918;DHT22;13899;51.174;4.456;2023-12-22T13:50:27;11.40;99.90
25918;DHT22;13899;51.174;4.456;2023-12-22T13:52:53;11.50;99.90
25918;DHT22;13899;51.174;4.456;2023-12-22T13:55:20;11.50;99.90
25918;DHT22;13899;51.174;4.456;2023-12-22T13:57:48;11.50;99.90
25918;DHT22;13899;51.174;4.456;2023-12-22T14:02:46;11.60;99.90
25918;DHT22;13899;51.174;4.456;2023-12-22T14:05:12;11.50;99.90
25918;DHT22;13899;51.174;4.456;2023-12-22T14:07:37;11.60;99.90
25918;DHT22;13899;51.174;4.456;2023-12-22T14:10:10;11.60;99.90
25918;DHT22;13899;51.174;4.456;2023-12-22T14:12:40;11.60;99.90
25918;DHT22;13899;51.174;4.456;2023-12-22T14:15:06;11.60;99.90
25918;DHT22;13899;51.174;4.456;2023-12-22T14:17:32;11.60;99.90
25918;DHT22;13899;51.174;4.456;2023-12-22T14:19:58;11.60;99.90
25918;DHT22;13899;51.174;4.456;2023-12-22T14:22:24;11.60;99.90
25918;DHT22;13899;51.174;4.456;2023-12-22T14:24:50;11.70;99.90
25918;DHT22;13899;51.174;4.456;2023-12-22T14:27:16;11.70;99.90
25918;DHT22;13899;51.174;4.456;2023-12-22T14:29:44;11.60;99.90
25918;DHT22;13899;51.174;4.456;2023-12-22T14:32:10;11.80;99.90
25918;DHT22;13899;51.174;4.456;2023-12-22T14:34:37;11.80;99.90
25918;DHT22;13899;51.174;4.456;2023-12-22T14:37:03;11.80;99.90
25918;DHT22;13899;51.174;4.456;2023-12-22T14:39:29;11.70;99.90
25918;DHT22;13899;51.174;4.456;2023-12-22T14:41:56;11.70;99.90
25918;DHT22;13899;51.174;4.456;2023-12-22T14:44:22;11.80;99.90
25918;DHT22;13899;51.174;4.456;2023-12-22T14:46:48;11.70;99.90
25918;DHT22;13899;51.174;4.456;2023-12-22T14:49:13;11.70;99.90
25918;DHT22;13899;51.174;4.456;2023-12-22T14:51:39;11.70;99.90
25918;DHT22;13899;51.174;4.456;2023-12-22T14:54:06;11.80;99.90
25918;DHT22;13899;51.174;4.456;2023-12-22T14:56:32;11.80;99.90
25918;DHT22;13899;51.174;4.456;2023-12-22T14:58:58;11.80;99.90
25918;DHT22;13899;51.174;4.456;2023-12-22T15:01:24;11.80;99.90
25918;DHT22;13899;51.174;4.456;2023-12-22T15:03:50;11.80;99.90
25918;DHT22;13899;51.174;4.456;2023-12-22T15:06:16;11.80;99.90
25918;DHT22;13899;51.174;4.456;2023-12-22T15:08:42;11.80;99.90
25918;DHT22;13899;51.174;4.456;2023-12-22T15:11:07;11.80;99.90
25918;DHT22;13899;51.174;4.456;2023-12-22T15:13:34;11.90;99.90
25918;DHT22;13899;51.174;4.456;2023-12-22T15:16:09;11.80;99.90
25918;DHT22;13899;51.174;4.456;2023-12-22T15:18:35;11.70;99.90
25918;DHT22;13899;51.174;4.456;2023-12-22T15:21:00;11.80;99.90
25918;DHT22;13899;51.174;4.456;2023-12-22T15:23:26;11.80;99.90
25918;DHT22;13899;51.174;4.456;2023-12-22T15:25:52;11.80;99.90
25918;DHT22;13899;51.174;4.456;2023-12-22T15:28:17;11.80;99.90
25918;DHT22;13899;51.174;4.456;2023-12-22T15:30:43;11.70;99.90
25918;DHT22;13899;51.174;4.456;2023-12-22T15:33:09;11.80;99.90
25918;DHT22;13899;51.174;4.456;2023-12-22T15:35:34;11.70;99.90
25918;DHT22;13899;51.174;4.456;2023-12-22T15:38:00;11.70;99.90
25918;DHT22;13899;51.174;4.456;2023-12-22T15:40:25;11.70;99.90
25918;DHT22;13899;51.174;4.456;2023-12-22T15:42:51;11.80;99.90